createdAt,value
2022-12-11T00:01:20.416Z,93.92
2022-12-11T00:03:49.442Z,94.01
2022-12-11T00:06:22.176Z,94.04
2022-12-11T00:08:55.105Z,94.07
2022-12-11T00:11:23.790Z,93.99
2022-12-11T00:13:52.753Z,93.94
2022-12-11T00:16:25.241Z,94.01
2022-12-11T00:18:55.511Z,94.05
2022-12-11T00:21:22.888Z,93.87
2022-12-11T00:23:50.640Z,94.05
2022-12-11T00:26:18.566Z,94.06
2022-12-11T00:28:46.371Z,94.08
2022-12-11T00:31:21.707Z,93.99
2022-12-11T00:33:51.395Z,94.05
2022-12-11T00:36:24.173Z,94.12
2022-12-11T00:38:53.819Z,93.88
2022-12-11T00:41:21.753Z,93.75
2022-12-11T00:43:49.467Z,93.54
2022-12-11T00:46:18.051Z,92.92
2022-12-11T00:48:46.311Z,93.23
2022-12-11T00:51:14.196Z,93.19
2022-12-11T00:53:42.148Z,93.02
2022-12-11T00:56:16.129Z,93.14
2022-12-11T00:58:45.716Z,93.03
2022-12-11T01:01:22.167Z,93.12
2022-12-11T01:03:50.121Z,93.02
2022-12-11T01:06:22.212Z,93.04
2022-12-11T01:09:10.095Z,93.20
2022-12-11T01:11:38.305Z,93.26
2022-12-11T01:14:06.326Z,93.18
2022-12-11T01:16:34.119Z,93.05
2022-12-11T01:19:02.302Z,93.19
2022-12-11T01:21:30.607Z,93.27
2022-12-11T01:23:58.125Z,93.17
2022-12-11T01:26:25.986Z,93.29
2022-12-11T01:28:53.567Z,93.21
2022-12-11T01:31:22.180Z,93.31
2022-12-11T01:33:49.772Z,93.35
2022-12-11T01:36:21.419Z,93.04
2022-12-11T01:38:50.154Z,93.21
2022-12-11T01:41:18.908Z,92.86
2022-12-11T01:44:01.950Z,92.88
2022-12-11T01:46:32.718Z,92.70
2022-12-11T01:49:04.003Z,92.80
2022-12-11T01:51:39.581Z,92.44
2022-12-11T01:54:12.226Z,92.21
2022-12-11T01:56:45.037Z,92.04
2022-12-11T01:59:19.007Z,92.21
2022-12-11T02:02:15.172Z,92.07
2022-12-11T02:04:46.030Z,91.26
2022-12-11T02:07:13.821Z,91.22
2022-12-11T02:09:45.480Z,91.24
2022-12-11T02:12:21.842Z,91.50
2022-12-11T02:15:11.328Z,91.15
2022-12-11T02:17:59.974Z,91.37
2022-12-11T02:20:36.540Z,91.43
2022-12-11T02:23:36.474Z,91.22
2022-12-11T02:26:12.608Z,91.75
2022-12-11T02:28:59.612Z,91.67
2022-12-11T02:31:32.713Z,91.76
2022-12-11T02:34:13.484Z,92.13
2022-12-11T02:36:49.324Z,91.95
2022-12-11T02:39:19.382Z,91.95
2022-12-11T02:41:51.592Z,92.62
2022-12-11T02:44:27.204Z,92.20
2022-12-11T02:46:56.073Z,92.44
2022-12-11T02:49:26.690Z,92.52
2022-12-11T02:51:56.998Z,92.37
2022-12-11T02:54:32.046Z,92.21
2022-12-11T02:57:14.692Z,92.40
2022-12-11T02:59:45.638Z,92.25
2022-12-11T03:02:16.778Z,92.43
2022-12-11T03:04:47.609Z,92.61
2022-12-11T03:07:31.999Z,92.59
2022-12-11T03:09:59.941Z,92.65
2022-12-11T03:12:35.818Z,92.55
2022-12-11T03:15:10.263Z,92.35
2022-12-11T03:18:22.705Z,92.28
2022-12-11T03:22:00.630Z,92.50
2022-12-11T03:24:34.691Z,92.57
2022-12-11T03:27:30.277Z,92.33
2022-12-11T03:30:05.107Z,91.84
2022-12-11T03:32:48.928Z,91.87
2022-12-11T03:35:32.051Z,92.09
2022-12-11T03:38:11.555Z,92.11
2022-12-11T03:40:43.280Z,91.64
2022-12-11T03:43:11.813Z,91.90
2022-12-11T03:45:41.499Z,91.61
2022-12-11T03:48:11.441Z,91.66
2022-12-11T03:50:41.750Z,91.70
2022-12-11T03:53:11.476Z,91.66
2022-12-11T03:55:41.990Z,91.93
2022-12-11T03:58:09.588Z,91.84
2022-12-11T04:00:38.057Z,91.58
2022-12-11T04:03:14.925Z,91.81
2022-12-11T04:05:52.812Z,91.47
2022-12-11T04:08:22.411Z,91.07
2022-12-11T04:11:14.478Z,91.59
2022-12-11T04:13:42.697Z,91.55
2022-12-11T04:16:10.392Z,91.56
2022-12-11T04:18:56.651Z,91.43
2022-12-11T04:21:42.646Z,91.55
2022-12-11T04:24:16.097Z,91.40
2022-12-11T04:26:47.709Z,91.34
2022-12-11T04:29:15.726Z,91.38
2022-12-11T04:31:43.440Z,91.00
2022-12-11T04:34:11.044Z,90.93
2022-12-11T04:36:38.691Z,90.93
2022-12-11T04:39:06.475Z,90.54
2022-12-11T04:41:35.639Z,90.83
2022-12-11T04:44:03.220Z,91.10
2022-12-11T04:46:31.579Z,90.64
2022-12-11T04:49:00.284Z,90.65
2022-12-11T04:51:28.653Z,91.01
2022-12-11T04:53:56.227Z,90.56
2022-12-11T04:56:25.120Z,90.36
2022-12-11T04:58:52.672Z,90.34
2022-12-11T05:01:23.315Z,90.22
2022-12-11T05:03:51.337Z,90.09
2022-12-11T05:06:19.019Z,90.05
2022-12-11T05:08:46.629Z,90.09
2022-12-11T05:11:16.339Z,90.14
2022-12-11T05:13:45.644Z,89.94
2022-12-11T05:16:17.010Z,89.68
2022-12-11T05:18:44.764Z,89.73
2022-12-11T05:21:14.900Z,89.52
2022-12-11T05:23:43.004Z,89.82
2022-12-11T05:26:18.043Z,89.60
2022-12-11T05:28:46.341Z,89.80
2022-12-11T05:31:18.574Z,89.46
2022-12-11T05:33:47.867Z,89.57
2022-12-11T05:36:22.905Z,89.81
2022-12-11T05:38:52.128Z,89.68
2022-12-11T05:41:23.236Z,89.46
2022-12-11T05:43:51.880Z,89.39
2022-12-11T05:46:22.217Z,89.23
2022-12-11T05:48:55.113Z,89.34
2022-12-11T05:51:23.533Z,89.42
2022-12-11T05:53:52.974Z,88.85
2022-12-11T05:56:25.072Z,89.26
2022-12-11T05:58:54.074Z,88.56
2022-12-11T06:01:33.564Z,88.71
2022-12-11T06:04:02.262Z,89.28
2022-12-11T06:06:29.729Z,88.44
2022-12-11T06:08:59.093Z,88.74
2022-12-11T06:11:30.245Z,88.40
2022-12-11T06:13:58.605Z,88.49
2022-12-11T06:16:26.327Z,88.43
2022-12-11T06:18:58.015Z,87.60
2022-12-11T06:21:32.844Z,88.08
2022-12-11T06:24:04.075Z,87.39
2022-12-11T06:26:32.147Z,87.86
2022-12-11T06:29:00.081Z,88.08
2022-12-11T06:31:27.907Z,87.70
2022-12-11T06:33:55.959Z,87.94
2022-12-11T06:36:24.806Z,87.78
2022-12-11T06:38:53.075Z,87.96
2022-12-11T06:41:20.620Z,87.83
2022-12-11T06:43:48.462Z,87.85
2022-12-11T06:46:19.533Z,87.29
2022-12-11T06:48:48.969Z,87.19
2022-12-11T06:51:21.057Z,87.50
2022-12-11T06:53:54.860Z,87.10
2022-12-11T06:56:24.022Z,86.43
2022-12-11T06:58:52.489Z,87.29
2022-12-11T07:01:26.664Z,86.75
2022-12-11T07:03:56.639Z,87.03
2022-12-11T07:06:25.878Z,86.28
2022-12-11T07:08:54.635Z,86.72
2022-12-11T07:11:22.877Z,86.58
2022-12-11T07:13:50.595Z,86.75
2022-12-11T07:16:19.253Z,86.24
2022-12-11T07:18:50.505Z,85.64
2022-12-11T07:21:20.115Z,85.92
2022-12-11T07:23:49.464Z,86.06
2022-12-11T07:26:20.767Z,86.11
2022-12-11T07:28:49.289Z,85.57
2022-12-11T07:31:22.132Z,85.83
2022-12-11T07:34:00.854Z,85.65
2022-12-11T07:36:30.326Z,85.51
2022-12-11T07:39:00.134Z,85.49
2022-12-11T07:41:28.835Z,85.45
2022-12-11T07:43:56.636Z,85.92
2022-12-11T07:46:28.307Z,85.26
2022-12-11T07:48:55.938Z,85.30
2022-12-11T07:51:36.799Z,85.50
2022-12-11T07:54:22.457Z,85.07
2022-12-11T07:56:53.773Z,85.66
2022-12-11T07:59:21.687Z,84.85
2022-12-11T08:01:49.323Z,84.83
2022-12-11T08:04:16.870Z,84.89
2022-12-11T08:06:44.528Z,84.62
2022-12-11T08:09:20.610Z,84.06
2022-12-11T08:11:52.627Z,83.46
2022-12-11T08:14:21.096Z,83.11
2022-12-11T08:16:50.080Z,83.15
2022-12-11T08:19:18.138Z,82.69
2022-12-11T08:21:45.732Z,82.50
2022-12-11T08:24:16.517Z,82.63
2022-12-11T08:26:45.332Z,82.40
2022-12-11T08:29:13.521Z,82.35
2022-12-11T08:31:42.486Z,82.51
2022-12-11T08:34:13.848Z,82.34
2022-12-11T08:36:41.969Z,82.56
2022-12-11T08:39:09.576Z,82.13
2022-12-11T08:41:38.395Z,81.70
2022-12-11T08:44:07.076Z,81.01
2022-12-11T08:46:36.149Z,80.58
2022-12-11T08:49:04.489Z,80.69
2022-12-11T08:51:33.015Z,79.83
2022-12-11T08:54:01.875Z,79.91
2022-12-11T08:56:30.135Z,79.29
2022-12-11T08:59:01.691Z,79.38
2022-12-11T09:01:29.908Z,79.47
2022-12-11T09:03:58.130Z,79.05
2022-12-11T09:06:31.805Z,79.01
2022-12-11T09:09:01.624Z,78.13
2022-12-11T09:11:34.509Z,78.99
2022-12-11T09:14:07.172Z,77.84
2022-12-11T09:16:40.452Z,78.22
2022-12-11T09:19:14.343Z,77.42
2022-12-11T09:21:43.948Z,77.98
2022-12-11T09:24:13.445Z,77.68
2022-12-11T09:26:42.048Z,77.87
2022-12-11T09:29:11.041Z,78.23
2022-12-11T09:31:38.525Z,77.94
2022-12-11T09:34:09.006Z,78.93
2022-12-11T09:36:39.585Z,80.03
2022-12-11T09:39:09.163Z,80.29
2022-12-11T09:42:02.121Z,81.05
2022-12-11T09:44:54.841Z,80.28
2022-12-11T09:47:30.940Z,80.54
2022-12-11T09:50:15.513Z,79.74
2022-12-11T09:53:17.058Z,79.54
2022-12-11T09:56:09.641Z,79.73
2022-12-11T09:58:45.803Z,78.96
2022-12-11T10:01:36.108Z,79.49
2022-12-11T10:04:25.198Z,77.37
2022-12-11T10:07:15.594Z,76.79
2022-12-11T10:10:15.465Z,76.66
2022-12-11T10:13:30.894Z,75.28
2022-12-11T10:16:24.281Z,76.06
2022-12-11T10:18:53.220Z,77.61
2022-12-11T10:21:21.426Z,78.63
2022-12-11T10:24:00.689Z,78.63
2022-12-11T10:26:29.896Z,78.96
2022-12-11T10:29:01.322Z,79.50
2022-12-11T10:31:49.870Z,79.73
2022-12-11T10:34:37.574Z,79.99
2022-12-11T10:37:05.352Z,80.34
2022-12-11T10:39:33.230Z,79.38
2022-12-11T10:42:15.995Z,80.23
2022-12-11T10:45:05.694Z,80.98
2022-12-11T10:47:34.135Z,80.56
2022-12-11T10:50:04.161Z,80.34
2022-12-11T10:52:45.192Z,80.40
2022-12-11T10:55:47.669Z,80.43
2022-12-11T10:58:25.600Z,80.63
2022-12-11T11:01:17.153Z,80.56
2022-12-11T11:03:55.274Z,80.89
2022-12-11T11:06:25.221Z,80.64
2022-12-11T11:08:56.920Z,81.49
2022-12-11T11:11:27.495Z,81.15
2022-12-11T11:14:30.474Z,80.69
2022-12-11T11:17:01.303Z,81.39
2022-12-11T11:19:38.526Z,81.46
2022-12-11T11:22:16.408Z,81.61
2022-12-11T11:24:53.912Z,81.47
2022-12-11T11:27:44.076Z,81.43
2022-12-11T11:30:22.541Z,82.20
2022-12-11T11:32:54.427Z,82.13
2022-12-11T11:35:29.952Z,82.18
2022-12-11T11:38:26.933Z,82.61
2022-12-11T11:41:24.437Z,82.29
2022-12-11T11:43:57.863Z,82.46
2022-12-11T11:46:53.292Z,82.26
2022-12-11T11:50:24.686Z,82.61
2022-12-11T11:53:23.161Z,83.28
2022-12-11T11:56:21.404Z,83.35
2022-12-11T11:59:12.653Z,83.22
2022-12-11T12:01:42.868Z,83.75
2022-12-11T12:04:12.174Z,83.48
2022-12-11T12:07:08.428Z,83.38
2022-12-11T12:09:51.754Z,83.20
2022-12-11T12:12:47.343Z,83.08
2022-12-11T12:15:34.993Z,83.15
2022-12-11T12:18:21.576Z,82.88
2022-12-11T12:21:31.385Z,83.40
2022-12-11T12:24:45.311Z,83.88
2022-12-11T12:27:51.468Z,83.80
2022-12-11T12:30:22.852Z,83.90
2022-12-11T12:33:17.109Z,83.66
2022-12-11T12:36:07.077Z,83.33
2022-12-11T12:38:53.220Z,83.32
2022-12-11T12:41:49.208Z,83.48
2022-12-11T12:44:21.542Z,83.55
2022-12-11T12:47:03.932Z,83.44
2022-12-11T12:49:42.259Z,83.25
2022-12-11T12:52:19.356Z,83.16
2022-12-11T12:55:12.604Z,82.85
2022-12-11T12:57:48.022Z,83.04
2022-12-11T13:00:44.070Z,83.13
2022-12-11T13:03:15.940Z,83.05
2022-12-11T13:05:59.866Z,82.98
2022-12-11T13:08:34.773Z,83.44
2022-12-11T13:11:07.680Z,83.34
2022-12-11T13:13:40.856Z,83.54
2022-12-11T13:16:17.454Z,83.10
2022-12-11T13:18:48.222Z,83.36
2022-12-11T13:21:38.345Z,82.87
2022-12-11T13:24:15.258Z,82.81
2022-12-11T13:26:44.092Z,83.20
2022-12-11T13:29:42.257Z,83.46
2022-12-11T13:32:09.991Z,82.85
2022-12-11T13:34:45.260Z,82.78
2022-12-11T13:37:41.905Z,82.49
2022-12-11T13:40:22.825Z,82.78
2022-12-11T13:42:57.539Z,81.64
2022-12-11T13:45:42.218Z,81.96
2022-12-11T13:48:40.903Z,81.74
2022-12-11T13:51:14.357Z,82.10
2022-12-11T13:53:42.009Z,81.79
2022-12-11T13:56:20.996Z,82.05
2022-12-11T13:58:49.365Z,81.28
2022-12-11T14:01:30.087Z,81.58
2022-12-11T14:04:07.902Z,82.34
2022-12-11T14:06:38.905Z,82.29
2022-12-11T14:09:08.433Z,82.62
2022-12-11T14:11:41.816Z,83.33
2022-12-11T14:14:23.622Z,83.66
2022-12-11T14:16:52.963Z,83.18
2022-12-11T14:19:23.247Z,83.62
2022-12-11T14:22:05.532Z,84.00
2022-12-11T14:24:33.301Z,84.10
2022-12-11T14:27:01.317Z,83.92
2022-12-11T14:29:33.908Z,84.07
2022-12-11T14:32:07.222Z,84.29
2022-12-11T14:34:46.153Z,84.35
2022-12-11T14:37:19.386Z,84.65
2022-12-11T14:40:09.758Z,84.40
2022-12-11T14:42:46.593Z,84.35
2022-12-11T14:45:30.123Z,84.57
2022-12-11T14:48:00.892Z,84.42
2022-12-11T14:50:47.576Z,84.22
2022-12-11T14:53:24.739Z,84.43
2022-12-11T14:55:53.818Z,84.84
2022-12-11T14:58:23.760Z,84.87
2022-12-11T15:01:05.068Z,85.06
2022-12-11T15:03:40.060Z,85.01
2022-12-11T15:06:30.448Z,85.08
2022-12-11T15:08:58.517Z,85.19
2022-12-11T15:11:32.914Z,84.68
2022-12-11T15:14:05.398Z,85.28
2022-12-11T15:16:37.294Z,85.04
2022-12-11T15:19:05.261Z,85.46
2022-12-11T15:21:36.293Z,84.89
2022-12-11T15:24:07.063Z,85.29
2022-12-11T15:26:46.716Z,84.95
2022-12-11T15:29:38.723Z,84.70
2022-12-11T15:32:08.975Z,84.86
2022-12-11T15:34:44.728Z,85.17
2022-12-11T15:37:19.309Z,84.46
2022-12-11T15:39:46.986Z,84.17
2022-12-11T15:42:23.260Z,84.36
2022-12-11T15:44:51.275Z,83.89
2022-12-11T15:47:28.114Z,84.37
2022-12-11T15:50:08.011Z,84.08
2022-12-11T15:52:35.544Z,84.01
2022-12-11T15:55:03.354Z,83.94
2022-12-11T15:57:31.272Z,83.39
2022-12-11T15:59:59.715Z,82.59
2022-12-11T16:02:28.055Z,82.94
2022-12-11T16:04:56.626Z,82.96
2022-12-11T16:07:26.516Z,82.73
2022-12-11T16:09:54.038Z,82.64
2022-12-11T16:12:21.762Z,82.76
2022-12-11T16:14:49.320Z,82.63
2022-12-11T16:17:17.431Z,82.73
2022-12-11T16:19:45.513Z,82.64
2022-12-11T16:22:14.224Z,83.13
2022-12-11T16:24:42.403Z,82.95
2022-12-11T16:27:13.001Z,82.57
2022-12-11T16:29:44.505Z,83.36
2022-12-11T16:32:12.920Z,83.04
2022-12-11T16:34:40.493Z,82.89
2022-12-11T16:37:09.443Z,83.66
2022-12-11T16:39:38.853Z,83.10
2022-12-11T16:42:06.998Z,82.60
2022-12-11T16:44:37.325Z,83.14
2022-12-11T16:47:08.715Z,82.83
2022-12-11T16:49:36.405Z,83.48
2022-12-11T16:52:04.250Z,83.18
2022-12-11T16:54:32.113Z,82.76
2022-12-11T16:56:59.812Z,83.09
2022-12-11T16:59:29.032Z,83.63
2022-12-11T17:01:58.892Z,83.33
2022-12-11T17:04:28.774Z,83.18
2022-12-11T17:06:56.457Z,82.99
2022-12-11T17:09:24.532Z,82.89
2022-12-11T17:11:54.635Z,83.10
2022-12-11T17:14:22.252Z,82.98
2022-12-11T17:16:50.164Z,82.66
2022-12-11T17:19:17.793Z,82.62
2022-12-11T17:21:51.519Z,82.64
2022-12-11T17:24:19.961Z,82.68
2022-12-11T17:26:48.963Z,82.77
2022-12-11T17:29:17.140Z,83.00
2022-12-11T17:31:44.991Z,83.23
2022-12-11T17:34:12.543Z,83.22
2022-12-11T17:36:40.190Z,83.44
2022-12-11T17:39:07.846Z,83.48
2022-12-11T17:41:35.444Z,83.50
2022-12-11T17:44:03.050Z,83.61
2022-12-11T17:46:30.739Z,83.43
2022-12-11T17:49:00.093Z,83.33
2022-12-11T17:51:27.845Z,83.52
2022-12-11T17:53:57.176Z,83.68
2022-12-11T17:56:26.293Z,83.71
2022-12-11T17:58:54.096Z,83.31
2022-12-11T18:01:22.070Z,83.23
2022-12-11T18:03:49.664Z,83.14
2022-12-11T18:06:17.453Z,83.12
2022-12-11T18:08:46.231Z,83.20
2022-12-11T18:11:21.595Z,82.83
2022-12-11T18:13:53.821Z,82.47
2022-12-11T18:16:28.946Z,82.63
2022-12-11T18:18:56.775Z,82.84
2022-12-11T18:21:29.185Z,83.13
2022-12-11T18:23:56.824Z,82.85
2022-12-11T18:26:25.238Z,82.77
2022-12-11T18:28:53.186Z,82.97
2022-12-11T18:31:23.028Z,83.16
2022-12-11T18:33:50.945Z,83.18
2022-12-11T18:36:20.874Z,83.25
2022-12-11T18:38:49.559Z,83.08
2022-12-11T18:41:19.435Z,82.89
2022-12-11T18:43:47.194Z,82.73
2022-12-11T18:46:19.975Z,83.17
2022-12-11T18:48:49.112Z,83.07
2022-12-11T18:51:23.688Z,83.14
2022-12-11T18:53:52.224Z,82.98
2022-12-11T18:56:21.377Z,82.83
2022-12-11T18:58:51.378Z,83.39
2022-12-11T19:01:26.021Z,82.79
2022-12-11T19:04:02.444Z,83.01
2022-12-11T19:06:33.161Z,82.50
2022-12-11T19:09:02.650Z,82.66
2022-12-11T19:11:33.571Z,83.07
2022-12-11T19:14:01.571Z,82.79
2022-12-11T19:16:39.390Z,82.97
2022-12-11T19:19:16.606Z,82.66
2022-12-11T19:21:45.673Z,82.35
2022-12-11T19:24:20.161Z,82.88
2022-12-11T19:26:49.294Z,82.54
2022-12-11T19:29:33.712Z,82.94
2022-12-11T19:32:03.177Z,82.99
2022-12-11T19:34:32.849Z,82.85
2022-12-11T19:37:00.438Z,82.70
2022-12-11T19:39:28.055Z,82.66
2022-12-11T19:41:55.817Z,82.73
2022-12-11T19:44:23.493Z,82.96
2022-12-11T19:46:51.168Z,83.08
2022-12-11T19:49:18.965Z,83.19
2022-12-11T19:51:46.554Z,83.33
2022-12-11T19:54:17.309Z,83.65
2022-12-11T19:56:48.409Z,82.70
2022-12-11T19:59:17.932Z,83.27
2022-12-11T20:01:48.221Z,83.10
2022-12-11T20:04:23.840Z,82.69
2022-12-11T20:06:52.213Z,83.03
2022-12-11T20:09:19.952Z,83.08
2022-12-11T20:11:47.905Z,83.43
2022-12-11T20:14:25.030Z,83.31
2022-12-11T20:17:12.101Z,83.12
2022-12-11T20:19:40.860Z,83.04
2022-12-11T20:22:09.225Z,83.36
2022-12-11T20:24:37.146Z,83.42
2022-12-11T20:27:05.499Z,83.24
2022-12-11T20:29:33.202Z,83.07
2022-12-11T20:32:00.837Z,82.91
2022-12-11T20:34:28.502Z,82.97
2022-12-11T20:36:56.426Z,83.14
2022-12-11T20:39:25.010Z,84.06
2022-12-11T20:41:52.854Z,84.19
2022-12-11T20:44:20.720Z,84.12
2022-12-11T20:46:48.325Z,84.21
2022-12-11T20:49:15.878Z,84.82
2022-12-11T20:51:43.994Z,85.41
2022-12-11T20:54:11.786Z,85.50
2022-12-11T20:56:39.396Z,85.75
2022-12-11T20:59:06.961Z,86.27
2022-12-11T21:01:35.081Z,86.42
2022-12-11T21:04:03.129Z,87.13
2022-12-11T21:06:35.134Z,87.95
2022-12-11T21:09:08.523Z,88.11
2022-12-11T21:11:36.133Z,88.87
2022-12-11T21:14:04.513Z,89.28
2022-12-11T21:16:32.741Z,89.43
2022-12-11T21:19:00.296Z,89.61
2022-12-11T21:21:27.841Z,89.68
2022-12-11T21:23:55.449Z,89.98
2022-12-11T21:26:24.198Z,90.16
2022-12-11T21:28:52.476Z,90.20
2022-12-11T21:31:20.307Z,90.27
2022-12-11T21:33:48.689Z,90.60
2022-12-11T21:36:17.420Z,90.14
2022-12-11T21:38:46.235Z,90.00
2022-12-11T21:41:18.585Z,89.79
2022-12-11T21:46:36.650Z,89.82
2022-12-11T21:49:04.432Z,89.75
2022-12-11T21:51:39.488Z,89.80
2022-12-11T21:54:15.869Z,89.81
2022-12-11T21:56:44.161Z,89.97
2022-12-11T21:59:12.090Z,89.90
2022-12-11T22:01:43.956Z,89.99
2022-12-11T22:04:13.263Z,89.79
2022-12-11T22:06:46.948Z,89.71
2022-12-11T22:09:18.027Z,89.90
2022-12-11T22:11:47.702Z,89.77
2022-12-11T22:14:18.294Z,89.63
2022-12-11T22:16:46.729Z,89.73
2022-12-11T22:19:14.604Z,89.92
2022-12-11T22:21:42.715Z,89.83
2022-12-11T22:24:10.420Z,90.16
2022-12-11T22:26:39.069Z,90.62
2022-12-11T22:29:06.596Z,90.76
2022-12-11T22:31:34.080Z,90.59
2022-12-11T22:34:01.939Z,90.43
2022-12-11T22:36:29.993Z,90.13
2022-12-11T22:39:00.118Z,90.03
2022-12-11T22:41:31.870Z,89.79
2022-12-11T22:44:00.815Z,89.84
2022-12-11T22:46:30.164Z,89.86
2022-12-11T22:48:59.158Z,90.00
2022-12-11T22:51:27.119Z,89.99
2022-12-11T22:53:54.881Z,90.04
2022-12-11T22:56:22.452Z,90.12
2022-12-11T22:58:50.132Z,90.74
2022-12-11T23:01:22.137Z,90.99
2022-12-11T23:03:50.166Z,90.53
2022-12-11T23:06:21.769Z,90.66
2022-12-11T23:08:49.968Z,91.02
2022-12-11T23:11:22.944Z,90.90
2022-12-11T23:13:51.160Z,90.93
2022-12-11T23:16:19.547Z,90.87
2022-12-11T23:18:47.208Z,90.92
2022-12-11T23:21:14.859Z,90.84
2022-12-11T23:23:42.913Z,90.53
2022-12-11T23:26:13.442Z,90.62
2022-12-11T23:28:41.655Z,90.77
2022-12-11T23:31:10.669Z,90.77
2022-12-11T23:33:38.593Z,90.92
2022-12-11T23:36:07.168Z,91.15
2022-12-11T23:38:34.937Z,90.98
2022-12-11T23:41:04.171Z,91.02
2022-12-11T23:43:34.213Z,91.06
2022-12-11T23:46:03.787Z,91.19
2022-12-11T23:48:31.791Z,91.22
2022-12-11T23:51:01.742Z,91.45
2022-12-11T23:53:29.484Z,91.46
2022-12-11T23:56:04.455Z,91.51
2022-12-11T23:58:34.987Z,91.55
